Birmingham-Shuttlesworth International Airport
KBHM : now visible

Airfield :











YOU CAN JOIN US ON...

 
LOGIN :

Register | Disclaimer

   EN    FR    IT 

 









Legend :    VFR   Marginal VFR   IFR   Intensive IFR   Very Intensive IFR
Visi :
Ceiling :
>= 8 km
>= 3000ft
5 to 8 km
1000 to 3000 ft
1500m to 5 km
500 to 1000 ft
800 to 1500m
200 to 500 ft
< 800m
< 200 ft
Symbols :   Thunderstorms  Fog  Heavy snow  Heavy precipitations  Wind > 20 kt






- Airport Elevation : 650 ft
- IATA code : BHM


KBHM - Birmingham-Shuttlesworth International

CURRENT METAR :
  • 231353Z 12003KT 10SM BKN110 09/M02 A3031 RMK AO2 SLP265 T00891022

EXPIRED METARs :
  • 231253Z 14003KT 10SM BKN100 07/M02 A3029 RMK AO2 SLP258 T00671017
  • 231153Z 00000KT 10SM BKN100 07/M02 A3029 RMK AO2 SLP258 T00671017 10067 20017 58001

TAF KBHM
Valid from the 23 at 12:00 until the 24 at 12:00 UTC


231138Z 2312/2412 00000KT P6SM OVC110
FM231700 20006KT P6SM OVC100
FM240000 VRB03KT P6SM OVC070
FM240600 15006KT P6SM -SHRA OVC060



MET'MAP, your aeronautical weather chart ! - Copyright ORBIFLY December 2007 - Disclaimer

ORBIFLY MET'MAP TEAM :

Programming & Development : Alexandra Zaïnal
Concept & original design : Baudouin d'Aumeries
Assistance for programming : Marc-Olivier Méhu
Technical & hardware support : Manuel Goepfert

Contact : metmap@orbifly.com




SOURCES & CREDITS :

   NOAA       Earth
Advisory